sensor_id;sensor_type;location;lat;lon;timestamp;P1;durP1;ratioP1;P2;durP2;ratioP2
48925;SDS011;39838;59.938;30.642;2023-10-09T00:01:49;3.55;;;2.15;;
48925;SDS011;39838;59.938;30.642;2023-10-09T00:04:16;3.50;;;2.40;;
48925;SDS011;39838;59.938;30.642;2023-10-09T00:06:45;3.45;;;2.47;;
48925;SDS011;39838;59.938;30.642;2023-10-09T00:09:14;4.40;;;2.65;;
48925;SDS011;39838;59.938;30.642;2023-10-09T00:11:54;2.45;;;2.00;;
48925;SDS011;39838;59.938;30.642;2023-10-09T00:14:24;5.03;;;2.28;;
48925;SDS011;39838;59.938;30.642;2023-10-09T00:16:55;3.70;;;2.10;;
48925;SDS011;39838;59.938;30.642;2023-10-09T00:19:30;3.00;;;2.15;;
48925;SDS011;39838;59.938;30.642;2023-10-09T00:21:58;4.13;;;2.40;;
48925;SDS011;39838;59.938;30.642;2023-10-09T00:24:31;3.83;;;2.25;;
48925;SDS011;39838;59.938;30.642;2023-10-09T00:26:59;2.92;;;2.25;;
48925;SDS011;39838;59.938;30.642;2023-10-09T00:29:38;5.32;;;2.38;;
48925;SDS011;39838;59.938;30.642;2023-10-09T00:32:10;4.55;;;2.60;;
48925;SDS011;39838;59.938;30.642;2023-10-09T00:34:48;4.20;;;2.15;;
48925;SDS011;39838;59.938;30.642;2023-10-09T00:37:17;3.85;;;2.13;;
48925;SDS011;39838;59.938;30.642;2023-10-09T00:39:48;3.67;;;2.25;;
48925;SDS011;39838;59.938;30.642;2023-10-09T00:42:21;3.95;;;2.40;;
48925;SDS011;39838;59.938;30.642;2023-10-09T00:44:56;3.97;;;2.22;;
48925;SDS011;39838;59.938;30.642;2023-10-09T00:47:33;3.00;;;2.28;;
48925;SDS011;39838;59.938;30.642;2023-10-09T00:50:02;3.13;;;2.20;;
48925;SDS011;39838;59.938;30.642;2023-10-09T00:52:36;3.08;;;2.20;;
48925;SDS011;39838;59.938;30.642;2023-10-09T00:55:08;5.03;;;2.50;;
48925;SDS011;39838;59.938;30.642;2023-10-09T00:57:41;2.92;;;2.03;;
48925;SDS011;39838;59.938;30.642;2023-10-09T01:00:17;3.25;;;2.60;;
48925;SDS011;39838;59.938;30.642;2023-10-09T01:02:58;3.20;;;2.20;;
48925;SDS011;39838;59.938;30.642;2023-10-09T01:05:46;3.35;;;2.40;;
48925;SDS011;39838;59.938;30.642;2023-10-09T01:08:22;2.45;;;2.25;;
48925;SDS011;39838;59.938;30.642;2023-10-09T01:10:54;3.75;;;2.50;;
48925;SDS011;39838;59.938;30.642;2023-10-09T01:13:24;3.53;;;2.53;;
48925;SDS011;39838;59.938;30.642;2023-10-09T01:18:30;3.15;;;2.30;;
48925;SDS011;39838;59.938;30.642;2023-10-09T01:21:04;3.22;;;2.10;;
48925;SDS011;39838;59.938;30.642;2023-10-09T01:23:33;2.85;;;2.35;;
48925;SDS011;39838;59.938;30.642;2023-10-09T01:26:08;3.22;;;2.40;;
48925;SDS011;39838;59.938;30.642;2023-10-09T01:28:36;3.33;;;2.40;;
48925;SDS011;39838;59.938;30.642;2023-10-09T01:31:03;4.90;;;2.50;;
48925;SDS011;39838;59.938;30.642;2023-10-09T01:33:32;4.18;;;2.22;;
48925;SDS011;39838;59.938;30.642;2023-10-09T01:36:02;2.88;;;2.33;;
48925;SDS011;39838;59.938;30.642;2023-10-09T01:38:30;2.70;;;2.28;;
48925;SDS011;39838;59.938;30.642;2023-10-09T01:41:07;2.70;;;2.40;;
48925;SDS011;39838;59.938;30.642;2023-10-09T01:43:41;3.70;;;2.45;;
48925;SDS011;39838;59.938;30.642;2023-10-09T01:46:10;3.13;;;2.38;;
48925;SDS011;39838;59.938;30.642;2023-10-09T01:48:41;2.80;;;2.40;;
48925;SDS011;39838;59.938;30.642;2023-10-09T01:51:13;2.90;;;2.50;;
48925;SDS011;39838;59.938;30.642;2023-10-09T01:53:44;2.90;;;2.47;;
48925;SDS011;39838;59.938;30.642;2023-10-09T01:56:13;3.65;;;2.70;;
48925;SDS011;39838;59.938;30.642;2023-10-09T01:58:42;2.70;;;2.03;;
48925;SDS011;39838;59.938;30.642;2023-10-09T02:01:12;3.70;;;2.42;;
48925;SDS011;39838;59.938;30.642;2023-10-09T02:03:41;2.65;;;2.25;;
48925;SDS011;39838;59.938;30.642;2023-10-09T02:06:09;3.03;;;2.20;;
48925;SDS011;39838;59.938;30.642;2023-10-09T02:09:01;4.07;;;2.30;;
48925;SDS011;39838;59.938;30.642;2023-10-09T02:11:31;2.53;;;2.30;;
48925;SDS011;39838;59.938;30.642;2023-10-09T02:14:07;3.08;;;2.42;;
48925;SDS011;39838;59.938;30.642;2023-10-09T02:16:45;3.67;;;2.30;;
48925;SDS011;39838;59.938;30.642;2023-10-09T02:19:28;2.80;;;2.40;;
48925;SDS011;39838;59.938;30.642;2023-10-09T02:22:00;2.90;;;2.50;;
48925;SDS011;39838;59.938;30.642;2023-10-09T02:24:39;2.42;;;2.17;;
48925;SDS011;39838;59.938;30.642;2023-10-09T02:27:17;2.80;;;2.40;;
48925;SDS011;39838;59.938;30.642;2023-10-09T02:30:02;3.35;;;2.55;;
48925;SDS011;39838;59.938;30.642;2023-10-09T02:32:41;3.53;;;2.60;;
48925;SDS011;39838;59.938;30.642;2023-10-09T02:35:13;3.08;;;2.22;;
48925;SDS011;39838;59.938;30.642;2023-10-09T02:38:02;3.45;;;2.58;;
48925;SDS011;39838;59.938;30.642;2023-10-09T02:40:33;3.58;;;2.60;;
48925;SDS011;39838;59.938;30.642;2023-10-09T02:43:27;2.90;;;2.40;;
48925;SDS011;39838;59.938;30.642;2023-10-09T02:45:59;3.53;;;2.60;;
48925;SDS011;39838;59.938;30.642;2023-10-09T02:48:38;2.80;;;2.45;;
48925;SDS011;39838;59.938;30.642;2023-10-09T02:51:10;3.63;;;2.65;;
48925;SDS011;39838;59.938;30.642;2023-10-09T02:53:46;3.80;;;2.72;;
48925;SDS011;39838;59.938;30.642;2023-10-09T02:56:16;3.15;;;2.50;;
48925;SDS011;39838;59.938;30.642;2023-10-09T02:58:49;4.22;;;2.83;;
48925;SDS011;39838;59.938;30.642;2023-10-09T03:01:17;4.57;;;2.60;;
48925;SDS011;39838;59.938;30.642;2023-10-09T03:03:45;3.63;;;2.60;;
48925;SDS011;39838;59.938;30.642;2023-10-09T03:06:13;6.65;;;2.50;;
48925;SDS011;39838;59.938;30.642;2023-10-09T03:08:50;3.45;;;2.88;;
48925;SDS011;39838;59.938;30.642;2023-10-09T03:11:21;3.72;;;2.70;;
48925;SDS011;39838;59.938;30.642;2023-10-09T03:13:48;2.90;;;2.40;;
48925;SDS011;39838;59.938;30.642;2023-10-09T03:16:17;3.45;;;2.53;;
48925;SDS011;39838;59.938;30.642;2023-10-09T03:18:46;3.17;;;2.58;;
48925;SDS011;39838;59.938;30.642;2023-10-09T03:21:14;3.10;;;2.60;;
48925;SDS011;39838;59.938;30.642;2023-10-09T03:23:42;4.07;;;2.60;;
48925;SDS011;39838;59.938;30.642;2023-10-09T03:26:10;3.90;;;2.50;;
48925;SDS011;39838;59.938;30.642;2023-10-09T03:28:39;2.63;;;2.30;;
48925;SDS011;39838;59.938;30.642;2023-10-09T03:31:08;3.80;;;2.80;;
48925;SDS011;39838;59.938;30.642;2023-10-09T03:33:36;3.40;;;2.67;;
48925;SDS011;39838;59.938;30.642;2023-10-09T03:36:03;3.30;;;2.65;;
48925;SDS011;39838;59.938;30.642;2023-10-09T03:38:35;4.78;;;2.65;;
48925;SDS011;39838;59.938;30.642;2023-10-09T03:41:03;3.50;;;2.55;;
48925;SDS011;39838;59.938;30.642;2023-10-09T03:43:32;4.50;;;2.95;;
48925;SDS011;39838;59.938;30.642;2023-10-09T03:46:08;4.53;;;2.80;;
48925;SDS011;39838;59.938;30.642;2023-10-09T03:48:40;3.30;;;2.67;;
48925;SDS011;39838;59.938;30.642;2023-10-09T03:51:12;3.50;;;2.67;;
48925;SDS011;39838;59.938;30.642;2023-10-09T03:53:46;3.60;;;2.80;;
48925;SDS011;39838;59.938;30.642;2023-10-09T03:56:14;3.35;;;2.55;;
48925;SDS011;39838;59.938;30.642;2023-10-09T03:58:44;3.50;;;2.60;;
48925;SDS011;39838;59.938;30.642;2023-10-09T04:01:14;5.25;;;3.17;;
48925;SDS011;39838;59.938;30.642;2023-10-09T04:03:48;4.80;;;2.63;;
48925;SDS011;39838;59.938;30.642;2023-10-09T04:06:16;3.45;;;2.50;;
48925;SDS011;39838;59.938;30.642;2023-10-09T04:08:44;3.33;;;2.63;;
48925;SDS011;39838;59.938;30.642;2023-10-09T04:11:14;4.22;;;2.60;;
48925;SDS011;39838;59.938;30.642;2023-10-09T04:13:48;3.08;;;2.42;;
48925;SDS011;39838;59.938;30.642;2023-10-09T04:16:19;4.07;;;2.75;;
48925;SDS011;39838;59.938;30.642;2023-10-09T04:19:00;3.65;;;2.85;;
48925;SDS011;39838;59.938;30.642;2023-10-09T04:21:32;3.35;;;2.67;;
48925;SDS011;39838;59.938;30.642;2023-10-09T04:24:02;3.40;;;2.55;;
48925;SDS011;39838;59.938;30.642;2023-10-09T04:26:48;2.67;;;2.42;;
48925;SDS011;39838;59.938;30.642;2023-10-09T04:29:22;3.28;;;2.50;;
48925;SDS011;39838;59.938;30.642;2023-10-09T04:31:54;2.90;;;2.53;;
48925;SDS011;39838;59.938;30.642;2023-10-09T04:34:25;4.10;;;2.70;;
48925;SDS011;39838;59.938;30.642;2023-10-09T04:37:00;4.03;;;2.70;;
48925;SDS011;39838;59.938;30.642;2023-10-09T04:39:45;4.03;;;2.70;;
48925;SDS011;39838;59.938;30.642;2023-10-09T04:42:27;3.50;;;2.47;;
48925;SDS011;39838;59.938;30.642;2023-10-09T04:45:04;4.10;;;2.85;;
48925;SDS011;39838;59.938;30.642;2023-10-09T04:47:51;4.32;;;2.85;;
48925;SDS011;39838;59.938;30.642;2023-10-09T04:50:32;3.28;;;2.65;;
48925;SDS011;39838;59.938;30.642;2023-10-09T04:55:55;2.75;;;2.25;;
48925;SDS011;39838;59.938;30.642;2023-10-09T04:58:24;2.95;;;2.20;;
48925;SDS011;39838;59.938;30.642;2023-10-09T05:00:52;2.88;;;2.22;;
48925;SDS011;39838;59.938;30.642;2023-10-09T05:03:39;4.75;;;2.53;;
48925;SDS011;39838;59.938;30.642;2023-10-09T05:06:10;3.60;;;2.47;;
48925;SDS011;39838;59.938;30.642;2023-10-09T05:08:58;3.80;;;2.60;;
48925;SDS011;39838;59.938;30.642;2023-10-09T05:11:34;4.72;;;2.70;;
48925;SDS011;39838;59.938;30.642;2023-10-09T05:17:03;2.95;;;2.63;;
48925;SDS011;39838;59.938;30.642;2023-10-09T05:19:43;3.05;;;2.53;;
48925;SDS011;39838;59.938;30.642;2023-10-09T05:22:41;4.03;;;2.72;;
48925;SDS011;39838;59.938;30.642;2023-10-09T05:25:18;4.57;;;2.80;;
48925;SDS011;39838;59.938;30.642;2023-10-09T05:28:06;3.70;;;2.80;;
48925;SDS011;39838;59.938;30.642;2023-10-09T05:30:47;4.38;;;3.00;;
48925;SDS011;39838;59.938;30.642;2023-10-09T05:33:20;3.60;;;2.72;;
48925;SDS011;39838;59.938;30.642;2023-10-09T05:36:02;4.00;;;2.65;;
48925;SDS011;39838;59.938;30.642;2023-10-09T05:38:57;3.90;;;2.60;;
48925;SDS011;39838;59.938;30.642;2023-10-09T05:41:43;3.88;;;2.95;;
48925;SDS011;39838;59.938;30.642;2023-10-09T05:44:18;4.40;;;2.90;;
48925;SDS011;39838;59.938;30.642;2023-10-09T05:47:02;3.75;;;2.67;;
48925;SDS011;39838;59.938;30.642;2023-10-09T05:49:48;3.83;;;2.58;;
48925;SDS011;39838;59.938;30.642;2023-10-09T05:52:48;4.68;;;2.72;;
48925;SDS011;39838;59.938;30.642;2023-10-09T05:55:33;3.80;;;2.80;;
48925;SDS011;39838;59.938;30.642;2023-10-09T05:58:34;3.78;;;2.70;;
48925;SDS011;39838;59.938;30.642;2023-10-09T06:01:15;4.47;;;2.65;;
48925;SDS011;39838;59.938;30.642;2023-10-09T06:04:00;3.50;;;2.70;;
48925;SDS011;39838;59.938;30.642;2023-10-09T06:06:40;3.15;;;2.50;;
48925;SDS011;39838;59.938;30.642;2023-10-09T06:09:13;4.10;;;2.85;;
48925;SDS011;39838;59.938;30.642;2023-10-09T06:12:04;2.92;;;2.45;;
48925;SDS011;39838;59.938;30.642;2023-10-09T06:14:49;3.63;;;2.67;;
48925;SDS011;39838;59.938;30.642;2023-10-09T06:17:24;3.75;;;3.00;;
48925;SDS011;39838;59.938;30.642;2023-10-09T06:19:53;3.65;;;2.83;;
48925;SDS011;39838;59.938;30.642;2023-10-09T06:22:45;3.88;;;2.90;;
48925;SDS011;39838;59.938;30.642;2023-10-09T06:25:25;4.10;;;3.00;;
48925;SDS011;39838;59.938;30.642;2023-10-09T06:27:58;4.10;;;2.67;;
48925;SDS011;39838;59.938;30.642;2023-10-09T06:30:26;3.97;;;2.92;;
48925;SDS011;39838;59.938;30.642;2023-10-09T06:32:54;4.13;;;2.72;;
48925;SDS011;39838;59.938;30.642;2023-10-09T06:35:23;3.67;;;2.78;;
48925;SDS011;39838;59.938;30.642;2023-10-09T06:37:57;3.65;;;2.83;;
48925;SDS011;39838;59.938;30.642;2023-10-09T06:40:49;3.10;;;2.60;;
48925;SDS011;39838;59.938;30.642;2023-10-09T06:43:34;3.83;;;2.80;;
48925;SDS011;39838;59.938;30.642;2023-10-09T06:46:16;3.70;;;2.78;;
48925;SDS011;39838;59.938;30.642;2023-10-09T06:49:00;3.58;;;2.55;;
48925;SDS011;39838;59.938;30.642;2023-10-09T06:51:47;3.03;;;2.42;;
48925;SDS011;39838;59.938;30.642;2023-10-09T06:54:21;3.47;;;2.85;;
48925;SDS011;39838;59.938;30.642;2023-10-09T06:56:52;3.53;;;2.67;;
48925;SDS011;39838;59.938;30.642;2023-10-09T06:59:37;3.95;;;2.90;;
48925;SDS011;39838;59.938;30.642;2023-10-09T07:02:35;4.00;;;3.00;;
48925;SDS011;39838;59.938;30.642;2023-10-09T07:05:11;3.40;;;2.70;;
48925;SDS011;39838;59.938;30.642;2023-10-09T07:07:43;3.42;;;2.83;;
48925;SDS011;39838;59.938;30.642;2023-10-09T07:10:21;3.47;;;2.78;;
48925;SDS011;39838;59.938;30.642;2023-10-09T07:12:59;3.35;;;2.55;;
48925;SDS011;39838;59.938;30.642;2023-10-09T07:15:28;3.28;;;2.60;;
48925;SDS011;39838;59.938;30.642;2023-10-09T07:18:13;3.47;;;2.80;;
48925;SDS011;39838;59.938;30.642;2023-10-09T07:20:49;4.35;;;2.80;;
48925;SDS011;39838;59.938;30.642;2023-10-09T07:23:27;3.00;;;2.55;;
48925;SDS011;39838;59.938;30.642;2023-10-09T07:26:04;3.50;;;2.65;;
48925;SDS011;39838;59.938;30.642;2023-10-09T07:28:51;4.10;;;2.55;;
48925;SDS011;39838;59.938;30.642;2023-10-09T07:31:26;3.15;;;2.63;;
48925;SDS011;39838;59.938;30.642;2023-10-09T07:33:56;4.35;;;2.53;;
48925;SDS011;39838;59.938;30.642;2023-10-09T07:36:23;4.10;;;2.50;;
48925;SDS011;39838;59.938;30.642;2023-10-09T07:39:05;3.17;;;2.78;;
48925;SDS011;39838;59.938;30.642;2023-10-09T07:41:42;3.78;;;2.67;;
48925;SDS011;39838;59.938;30.642;2023-10-09T07:44:27;3.22;;;2.70;;
48925;SDS011;39838;59.938;30.642;2023-10-09T07:49:49;4.00;;;2.80;;
48925;SDS011;39838;59.938;30.642;2023-10-09T07:52:19;2.95;;;2.50;;
48925;SDS011;39838;59.938;30.642;2023-10-09T07:54:51;3.28;;;2.78;;
48925;SDS011;39838;59.938;30.642;2023-10-09T07:57:27;4.03;;;2.50;;
48925;SDS011;39838;59.938;30.642;2023-10-09T08:00:05;3.42;;;2.80;;
48925;SDS011;39838;59.938;30.642;2023-10-09T08:03:02;3.38;;;2.65;;
48925;SDS011;39838;59.938;30.642;2023-10-09T08:05:50;4.18;;;2.67;;
48925;SDS011;39838;59.938;30.642;2023-10-09T08:08:19;3.88;;;2.80;;
48925;SDS011;39838;59.938;30.642;2023-10-09T08:11:00;4.97;;;2.80;;
48925;SDS011;39838;59.938;30.642;2023-10-09T08:13:44;3.33;;;2.65;;
48925;SDS011;39838;59.938;30.642;2023-10-09T08:16:22;3.72;;;2.83;;
48925;SDS011;39838;59.938;30.642;2023-10-09T08:18:49;3.85;;;2.72;;
48925;SDS011;39838;59.938;30.642;2023-10-09T08:21:19;3.45;;;2.60;;
48925;SDS011;39838;59.938;30.642;2023-10-09T08:24:06;3.80;;;2.50;;
48925;SDS011;39838;59.938;30.642;2023-10-09T08:26:53;3.08;;;2.67;;
48925;SDS011;39838;59.938;30.642;2023-10-09T08:29:41;3.38;;;2.67;;
48925;SDS011;39838;59.938;30.642;2023-10-09T08:32:12;4.15;;;2.88;;
48925;SDS011;39838;59.938;30.642;2023-10-09T08:35:04;4.28;;;2.72;;
48925;SDS011;39838;59.938;30.642;2023-10-09T08:37:46;4.43;;;2.90;;
48925;SDS011;39838;59.938;30.642;2023-10-09T08:40:14;6.40;;;2.70;;
48925;SDS011;39838;59.938;30.642;2023-10-09T08:42:47;3.50;;;2.75;;
48925;SDS011;39838;59.938;30.642;2023-10-09T08:45:21;3.25;;;2.60;;
48925;SDS011;39838;59.938;30.642;2023-10-09T08:47:53;3.75;;;2.83;;
48925;SDS011;39838;59.938;30.642;2023-10-09T08:50:20;3.72;;;2.85;;
48925;SDS011;39838;59.938;30.642;2023-10-09T08:52:49;5.13;;;2.80;;
48925;SDS011;39838;59.938;30.642;2023-10-09T08:55:17;3.17;;;2.50;;
48925;SDS011;39838;59.938;30.642;2023-10-09T08:57:44;4.60;;;2.80;;
48925;SDS011;39838;59.938;30.642;2023-10-09T09:00:16;5.00;;;2.80;;
48925;SDS011;39838;59.938;30.642;2023-10-09T09:02:47;5.00;;;3.40;;
48925;SDS011;39838;59.938;30.642;2023-10-09T09:05:17;4.45;;;3.05;;
48925;SDS011;39838;59.938;30.642;2023-10-09T09:07:45;4.43;;;3.20;;
48925;SDS011;39838;59.938;30.642;2023-10-09T09:10:15;4.90;;;3.20;;
48925;SDS011;39838;59.938;30.642;2023-10-09T09:12:47;3.50;;;2.47;;
48925;SDS011;39838;59.938;30.642;2023-10-09T09:15:19;4.40;;;3.05;;
48925;SDS011;39838;59.938;30.642;2023-10-09T09:17:47;5.95;;;3.42;;
48925;SDS011;39838;59.938;30.642;2023-10-09T09:20:19;5.72;;;3.25;;
48925;SDS011;39838;59.938;30.642;2023-10-09T09:22:52;4.10;;;3.00;;
48925;SDS011;39838;59.938;30.642;2023-10-09T09:25:24;5.05;;;3.22;;
48925;SDS011;39838;59.938;30.642;2023-10-09T09:28:08;4.75;;;3.45;;
48925;SDS011;39838;59.938;30.642;2023-10-09T09:30:38;5.57;;;3.00;;
48925;SDS011;39838;59.938;30.642;2023-10-09T09:36:05;5.30;;;3.05;;
48925;SDS011;39838;59.938;30.642;2023-10-09T09:38:35;4.25;;;3.03;;
48925;SDS011;39838;59.938;30.642;2023-10-09T09:41:15;4.25;;;2.88;;
48925;SDS011;39838;59.938;30.642;2023-10-09T09:43:51;4.40;;;2.92;;
48925;SDS011;39838;59.938;30.642;2023-10-09T09:46:22;3.75;;;2.90;;
48925;SDS011;39838;59.938;30.642;2023-10-09T09:48:59;5.20;;;3.13;;
48925;SDS011;39838;59.938;30.642;2023-10-09T09:51:29;3.63;;;2.83;;
48925;SDS011;39838;59.938;30.642;2023-10-09T09:53:56;3.70;;;2.83;;
48925;SDS011;39838;59.938;30.642;2023-10-09T09:56:25;3.17;;;2.50;;
48925;SDS011;39838;59.938;30.642;2023-10-09T09:58:57;3.38;;;2.55;;
48925;SDS011;39838;59.938;30.642;2023-10-09T10:01:32;3.10;;;2.40;;
48925;SDS011;39838;59.938;30.642;2023-10-09T10:04:05;3.17;;;2.60;;
48925;SDS011;39838;59.938;30.642;2023-10-09T10:06:39;3.30;;;2.63;;
48925;SDS011;39838;59.938;30.642;2023-10-09T10:09:10;3.00;;;2.50;;
48925;SDS011;39838;59.938;30.642;2023-10-09T10:11:45;2.50;;;2.30;;
48925;SDS011;39838;59.938;30.642;2023-10-09T10:14:17;3.47;;;2.75;;
48925;SDS011;39838;59.938;30.642;2023-10-09T10:17:01;4.95;;;3.20;;
48925;SDS011;39838;59.938;30.642;2023-10-09T10:22:49;3.75;;;2.85;;
48925;SDS011;39838;59.938;30.642;2023-10-09T10:25:33;4.55;;;3.22;;
48925;SDS011;39838;59.938;30.642;2023-10-09T10:31:04;4.95;;;3.42;;
48925;SDS011;39838;59.938;30.642;2023-10-09T10:36:32;4.75;;;3.40;;
48925;SDS011;39838;59.938;30.642;2023-10-09T10:39:00;5.20;;;3.50;;
48925;SDS011;39838;59.938;30.642;2023-10-09T10:41:34;3.90;;;2.90;;
48925;SDS011;39838;59.938;30.642;2023-10-09T10:44:25;4.35;;;3.17;;
48925;SDS011;39838;59.938;30.642;2023-10-09T10:47:03;3.75;;;2.80;;
48925;SDS011;39838;59.938;30.642;2023-10-09T10:49:47;5.15;;;2.97;;
48925;SDS011;39838;59.938;30.642;2023-10-09T10:52:22;3.72;;;2.75;;
48925;SDS011;39838;59.938;30.642;2023-10-09T10:55:07;5.88;;;2.85;;
48925;SDS011;39838;59.938;30.642;2023-10-09T10:58:14;4.70;;;3.25;;
48925;SDS011;39838;59.938;30.642;2023-10-09T11:00:54;3.78;;;3.00;;
48925;SDS011;39838;59.938;30.642;2023-10-09T11:03:39;4.38;;;3.10;;
48925;SDS011;39838;59.938;30.642;2023-10-09T11:06:27;4.45;;;3.25;;
48925;SDS011;39838;59.938;30.642;2023-10-09T11:09:08;5.50;;;3.80;;
48925;SDS011;39838;59.938;30.642;2023-10-09T11:11:46;8.38;;;3.50;;
48925;SDS011;39838;59.938;30.642;2023-10-09T11:14:15;5.55;;;3.67;;
48925;SDS011;39838;59.938;30.642;2023-10-09T11:16:50;7.80;;;4.32;;
48925;SDS011;39838;59.938;30.642;2023-10-09T11:19:23;9.30;;;5.20;;
48925;SDS011;39838;59.938;30.642;2023-10-09T11:22:05;4.57;;;3.28;;
48925;SDS011;39838;59.938;30.642;2023-10-09T11:24:53;8.65;;;4.18;;
48925;SDS011;39838;59.938;30.642;2023-10-09T11:27:39;9.77;;;4.53;;
48925;SDS011;39838;59.938;30.642;2023-10-09T11:30:16;6.82;;;4.50;;
48925;SDS011;39838;59.938;30.642;2023-10-09T11:33:05;6.78;;;4.60;;
48925;SDS011;39838;59.938;30.642;2023-10-09T11:35:40;8.90;;;5.63;;
48925;SDS011;39838;59.938;30.642;2023-10-09T11:38:09;7.40;;;4.38;;
48925;SDS011;39838;59.938;30.642;2023-10-09T11:40:49;7.82;;;5.10;;
48925;SDS011;39838;59.938;30.642;2023-10-09T11:43:38;5.38;;;3.03;;
48925;SDS011;39838;59.938;30.642;2023-10-09T11:46:22;3.92;;;2.88;;
48925;SDS011;39838;59.938;30.642;2023-10-09T11:49:15;3.22;;;2.47;;
48925;SDS011;39838;59.938;30.642;2023-10-09T11:52:06;4.07;;;2.85;;
48925;SDS011;39838;59.938;30.642;2023-10-09T11:54:52;4.15;;;3.03;;
48925;SDS011;39838;59.938;30.642;2023-10-09T11:57:22;9.10;;;5.60;;
48925;SDS011;39838;59.938;30.642;2023-10-09T11:59:56;7.63;;;5.10;;
48925;SDS011;39838;59.938;30.642;2023-10-09T12:02:24;8.30;;;5.30;;
48925;SDS011;39838;59.938;30.642;2023-10-09T12:04:53;6.00;;;4.03;;
48925;SDS011;39838;59.938;30.642;2023-10-09T12:07:23;5.03;;;3.65;;
48925;SDS011;39838;59.938;30.642;2023-10-09T12:09:51;4.95;;;3.30;;
48925;SDS011;39838;59.938;30.642;2023-10-09T12:12:22;7.10;;;3.55;;
48925;SDS011;39838;59.938;30.642;2023-10-09T12:14:52;5.75;;;3.38;;
48925;SDS011;39838;59.938;30.642;2023-10-09T12:17:20;4.38;;;3.00;;
48925;SDS011;39838;59.938;30.642;2023-10-09T12:19:52;4.40;;;3.65;;
48925;SDS011;39838;59.938;30.642;2023-10-09T12:22:21;3.88;;;2.83;;
48925;SDS011;39838;59.938;30.642;2023-10-09T12:24:52;4.05;;;3.10;;
48925;SDS011;39838;59.938;30.642;2023-10-09T12:27:19;4.20;;;3.10;;
48925;SDS011;39838;59.938;30.642;2023-10-09T12:29:47;4.38;;;3.30;;
48925;SDS011;39838;59.938;30.642;2023-10-09T12:32:15;5.13;;;2.95;;
48925;SDS011;39838;59.938;30.642;2023-10-09T12:34:45;5.38;;;2.70;;
48925;SDS011;39838;59.938;30.642;2023-10-09T12:37:17;3.45;;;2.70;;
48925;SDS011;39838;59.938;30.642;2023-10-09T12:39:46;3.90;;;2.88;;
48925;SDS011;39838;59.938;30.642;2023-10-09T12:42:13;3.70;;;2.70;;
48925;SDS011;39838;59.938;30.642;2023-10-09T12:44:42;4.20;;;3.00;;
48925;SDS011;39838;59.938;30.642;2023-10-09T12:47:10;4.40;;;2.90;;
48925;SDS011;39838;59.938;30.642;2023-10-09T12:49:37;3.90;;;2.90;;
48925;SDS011;39838;59.938;30.642;2023-10-09T12:52:07;5.53;;;2.88;;
48925;SDS011;39838;59.938;30.642;2023-10-09T12:54:43;4.78;;;3.00;;
48925;SDS011;39838;59.938;30.642;2023-10-09T12:57:12;3.45;;;2.60;;
48925;SDS011;39838;59.938;30.642;2023-10-09T12:59:40;3.92;;;3.00;;
48925;SDS011;39838;59.938;30.642;2023-10-09T13:02:12;4.70;;;3.10;;
48925;SDS011;39838;59.938;30.642;2023-10-09T13:04:53;4.28;;;3.10;;
48925;SDS011;39838;59.938;30.642;2023-10-09T13:07:20;3.97;;;3.08;;
48925;SDS011;39838;59.938;30.642;2023-10-09T13:09:50;5.30;;;3.15;;
48925;SDS011;39838;59.938;30.642;2023-10-09T13:12:30;4.72;;;3.20;;
48925;SDS011;39838;59.938;30.642;2023-10-09T13:14:58;4.75;;;3.40;;
48925;SDS011;39838;59.938;30.642;2023-10-09T13:17:25;3.97;;;2.85;;
48925;SDS011;39838;59.938;30.642;2023-10-09T13:19:53;4.15;;;2.90;;
48925;SDS011;39838;59.938;30.642;2023-10-09T13:22:21;4.65;;;3.08;;
48925;SDS011;39838;59.938;30.642;2023-10-09T13:24:52;3.47;;;2.80;;
48925;SDS011;39838;59.938;30.642;2023-10-09T13:27:29;3.20;;;2.70;;
48925;SDS011;39838;59.938;30.642;2023-10-09T13:29:59;4.72;;;2.78;;
48925;SDS011;39838;59.938;30.642;2023-10-09T13:32:31;4.05;;;3.05;;
48925;SDS011;39838;59.938;30.642;2023-10-09T13:35:01;4.03;;;2.90;;
48925;SDS011;39838;59.938;30.642;2023-10-09T13:37:31;3.72;;;3.00;;
48925;SDS011;39838;59.938;30.642;2023-10-09T13:40:03;3.70;;;2.83;;
48925;SDS011;39838;59.938;30.642;2023-10-09T13:42:35;8.30;;;3.00;;
48925;SDS011;39838;59.938;30.642;2023-10-09T13:45:03;4.05;;;2.95;;
48925;SDS011;39838;59.938;30.642;2023-10-09T13:47:41;4.82;;;2.70;;
48925;SDS011;39838;59.938;30.642;2023-10-09T13:50:10;3.88;;;2.70;;
48925;SDS011;39838;59.938;30.642;2023-10-09T13:52:38;3.88;;;2.80;;
48925;SDS011;39838;59.938;30.642;2023-10-09T13:55:08;5.07;;;2.75;;
48925;SDS011;39838;59.938;30.642;2023-10-09T13:57:41;4.07;;;3.00;;
48925;SDS011;39838;59.938;30.642;2023-10-09T14:00:11;5.72;;;3.00;;
48925;SDS011;39838;59.938;30.642;2023-10-09T14:02:43;4.78;;;3.05;;
48925;SDS011;39838;59.938;30.642;2023-10-09T14:05:12;3.65;;;3.00;;
48925;SDS011;39838;59.938;30.642;2023-10-09T14:07:40;5.65;;;3.05;;
48925;SDS011;39838;59.938;30.642;2023-10-09T14:10:09;4.40;;;3.22;;
48925;SDS011;39838;59.938;30.642;2023-10-09T14:12:43;3.67;;;2.90;;
48925;SDS011;39838;59.938;30.642;2023-10-09T14:15:11;5.93;;;3.30;;
48925;SDS011;39838;59.938;30.642;2023-10-09T14:17:42;5.55;;;3.20;;
48925;SDS011;39838;59.938;30.642;2023-10-09T14:20:12;4.07;;;3.13;;
48925;SDS011;39838;59.938;30.642;2023-10-09T14:22:57;5.13;;;3.22;;
48925;SDS011;39838;59.938;30.642;2023-10-09T14:25:33;4.63;;;3.22;;
48925;SDS011;39838;59.938;30.642;2023-10-09T14:28:03;5.35;;;3.13;;
48925;SDS011;39838;59.938;30.642;2023-10-09T14:30:33;4.85;;;3.50;;
48925;SDS011;39838;59.938;30.642;2023-10-09T14:33:08;5.43;;;3.40;;
48925;SDS011;39838;59.938;30.642;2023-10-09T14:35:38;4.50;;;3.60;;
48925;SDS011;39838;59.938;30.642;2023-10-09T14:38:07;5.25;;;3.70;;
48925;SDS011;39838;59.938;30.642;2023-10-09T14:40:41;4.82;;;3.60;;
48925;SDS011;39838;59.938;30.642;2023-10-09T14:43:09;4.70;;;3.58;;
48925;SDS011;39838;59.938;30.642;2023-10-09T14:48:14;8.40;;;4.00;;
48925;SDS011;39838;59.938;30.642;2023-10-09T14:50:47;7.55;;;3.83;;
48925;SDS011;39838;59.938;30.642;2023-10-09T14:53:18;5.18;;;3.92;;
48925;SDS011;39838;59.938;30.642;2023-10-09T14:55:53;6.53;;;3.70;;
48925;SDS011;39838;59.938;30.642;2023-10-09T14:58:21;5.00;;;3.40;;
48925;SDS011;39838;59.938;30.642;2023-10-09T15:00:50;5.15;;;3.40;;
48925;SDS011;39838;59.938;30.642;2023-10-09T15:03:19;4.65;;;3.40;;
48925;SDS011;39838;59.938;30.642;2023-10-09T15:05:48;4.57;;;3.50;;
48925;SDS011;39838;59.938;30.642;2023-10-09T15:08:15;5.03;;;3.58;;
48925;SDS011;39838;59.938;30.642;2023-10-09T15:10:48;8.30;;;3.80;;
48925;SDS011;39838;59.938;30.642;2023-10-09T15:13:17;4.35;;;3.28;;
48925;SDS011;39838;59.938;30.642;2023-10-09T15:15:44;5.80;;;3.60;;
48925;SDS011;39838;59.938;30.642;2023-10-09T15:18:16;6.28;;;3.90;;
48925;SDS011;39838;59.938;30.642;2023-10-09T15:20:47;5.18;;;3.92;;
48925;SDS011;39838;59.938;30.642;2023-10-09T15:23:14;6.07;;;3.38;;
48925;SDS011;39838;59.938;30.642;2023-10-09T15:25:42;5.50;;;3.75;;
48925;SDS011;39838;59.938;30.642;2023-10-09T15:28:12;6.00;;;4.30;;
48925;SDS011;39838;59.938;30.642;2023-10-09T15:30:40;6.30;;;4.10;;
48925;SDS011;39838;59.938;30.642;2023-10-09T15:33:08;5.47;;;3.88;;
48925;SDS011;39838;59.938;30.642;2023-10-09T15:35:36;5.40;;;3.60;;
48925;SDS011;39838;59.938;30.642;2023-10-09T15:38:05;5.55;;;3.92;;
48925;SDS011;39838;59.938;30.642;2023-10-09T15:40:33;6.75;;;4.18;;
48925;SDS011;39838;59.938;30.642;2023-10-09T15:43:01;6.20;;;4.20;;